Alpaugh, California
Current Conditions -  °F | °C
As of 12:15 PM on Thursday 30 Oct 2014 (Local Time) from KPTV Reporting Station
Clear Clear  
Wind Chill: 77°   Ceiling: Unl
Heat Index: 78°   Visibility: 10mi
Dew Point: 45°   Wind: 3mph
Humidity: 32%   Direction: 350°N
Pressure: 29.95"   Gusts: NA
Location:  35.89°N, 119.49°W
Report Text: KPTV 301915Z AUTO 35003KT 10SM CLR 25/07 A2995 RMK AO1
Loading
Personal Weather Stations






























Interactive Weather Map
Tropical Storm Tracking
New forecast layout! Learn more

10-Day Weather Forecast

Advertisements
Track Severe Weather on mobile